createdAt,value
2023-04-18T00:01:42.093Z,8.23
2023-04-18T00:04:09.021Z,8.37
2023-04-18T00:06:38.897Z,8.31
2023-04-18T00:09:05.532Z,8.23
2023-04-18T00:11:32.070Z,8.33
2023-04-18T00:13:59.424Z,8.29
2023-04-18T00:16:27.274Z,8.22
2023-04-18T00:18:54.163Z,8.17
2023-04-18T00:21:23.264Z,8.18
2023-04-18T00:23:49.757Z,8.27
2023-04-18T00:26:16.249Z,8.22
2023-04-18T00:28:42.781Z,8.22
2023-04-18T00:31:09.368Z,8.24
2023-04-18T00:33:35.931Z,8.34
2023-04-18T00:36:02.465Z,8.41
2023-04-18T00:38:28.906Z,8.45
2023-04-18T00:40:55.383Z,8.55
2023-04-18T00:43:23.828Z,8.64
2023-04-18T00:45:50.440Z,8.67
2023-04-18T00:48:17.579Z,8.65
2023-04-18T00:50:45.276Z,8.69
2023-04-18T00:53:11.929Z,8.69
2023-04-18T00:55:39.434Z,8.69
2023-04-18T00:58:06.401Z,8.65
2023-04-18T01:00:32.917Z,8.69
2023-04-18T01:02:59.828Z,8.69
2023-04-18T01:05:27.073Z,8.73
2023-04-18T01:07:58.743Z,8.73
2023-04-18T01:10:26.223Z,8.79
2023-04-18T01:13:13.217Z,8.82
2023-04-18T01:15:43.907Z,8.80
2023-04-18T01:18:11.742Z,8.83
2023-04-18T01:20:41.503Z,8.84
2023-04-18T01:23:10.410Z,8.87
2023-04-18T01:25:37.348Z,8.88
2023-04-18T01:28:04.830Z,8.91
2023-04-18T01:30:31.406Z,8.84
2023-04-18T01:32:57.939Z,8.87
2023-04-18T01:35:24.463Z,8.85
2023-04-18T01:37:50.979Z,8.87
2023-04-18T01:40:17.516Z,8.89
2023-04-18T01:42:44.025Z,8.89
2023-04-18T01:45:11.980Z,8.88
2023-04-18T01:47:38.616Z,8.97
2023-04-18T01:50:05.843Z,8.91
2023-04-18T01:52:32.363Z,8.95
2023-04-18T01:54:58.949Z,8.92
2023-04-18T01:57:25.489Z,8.95
2023-04-18T01:59:51.946Z,8.95
2023-04-18T02:02:18.735Z,8.89
2023-04-18T02:04:45.592Z,8.87
2023-04-18T02:07:12.226Z,8.97
2023-04-18T02:09:38.675Z,8.95
2023-04-18T02:12:05.273Z,8.97
2023-04-18T02:14:36.283Z,9.00
2023-04-18T02:17:02.810Z,8.99
2023-04-18T02:19:30.202Z,8.95
2023-04-18T02:21:56.725Z,8.91
2023-04-18T02:24:23.310Z,8.85
2023-04-18T02:26:50.362Z,8.83
2023-04-18T02:29:17.064Z,8.90
2023-04-18T02:31:43.675Z,8.92
2023-04-18T02:34:10.259Z,8.98
2023-04-18T02:36:36.739Z,8.99
2023-04-18T02:39:03.373Z,8.93
2023-04-18T02:41:29.818Z,8.94
2023-04-18T02:43:56.348Z,8.99
2023-04-18T02:46:22.943Z,8.93
2023-04-18T02:48:49.573Z,8.87
2023-04-18T02:51:16.292Z,8.99
2023-04-18T02:53:42.759Z,8.96
2023-04-18T02:56:09.283Z,8.95
2023-04-18T02:58:36.442Z,8.96
2023-04-18T03:01:03.220Z,8.97
2023-04-18T03:03:29.783Z,8.93
2023-04-18T03:05:56.316Z,8.99
2023-04-18T03:08:22.738Z,8.96
2023-04-18T03:10:49.232Z,8.94
2023-04-18T03:13:16.897Z,8.99
2023-04-18T03:15:43.531Z,9.04
2023-04-18T03:18:10.016Z,8.98
2023-04-18T03:20:37.516Z,8.99
2023-04-18T03:23:03.962Z,8.93
2023-04-18T03:25:30.613Z,8.98
2023-04-18T03:27:57.064Z,9.02
2023-04-18T03:30:23.609Z,9.09
2023-04-18T03:32:52.944Z,8.99
2023-04-18T03:35:19.732Z,9.00
2023-04-18T03:37:46.158Z,8.94
2023-04-18T03:40:12.712Z,9.07
2023-04-18T03:42:39.192Z,9.07
2023-04-18T03:45:06.079Z,9.05
2023-04-18T03:47:32.605Z,9.00
2023-04-18T03:49:59.049Z,8.97
2023-04-18T03:52:26.075Z,9.05
2023-04-18T03:54:53.441Z,8.92
2023-04-18T03:57:19.887Z,8.86
2023-04-18T03:59:47.942Z,8.94
2023-04-18T04:02:14.599Z,8.93
2023-04-18T04:04:41.424Z,8.92
2023-04-18T04:07:07.983Z,8.90
2023-04-18T04:09:34.435Z,8.84
2023-04-18T04:12:02.223Z,8.76
2023-04-18T04:14:28.646Z,8.79
2023-04-18T04:16:55.219Z,8.79
2023-04-18T04:19:21.708Z,8.75
2023-04-18T04:21:48.470Z,8.67
2023-04-18T04:24:16.191Z,8.66
2023-04-18T04:26:43.125Z,8.63
2023-04-18T04:29:13.855Z,8.62
2023-04-18T04:31:40.480Z,8.60
2023-04-18T04:34:07.047Z,8.52
2023-04-18T04:36:33.546Z,8.55
2023-04-18T04:39:00.249Z,8.53
2023-04-18T04:41:27.748Z,8.53
2023-04-18T04:43:54.486Z,8.55
2023-04-18T04:46:21.203Z,8.53
2023-04-18T04:48:47.752Z,8.54
2023-04-18T04:51:14.270Z,8.57
2023-04-18T04:53:40.888Z,8.53
2023-04-18T04:56:07.653Z,8.51
2023-04-18T04:58:34.202Z,8.57
2023-04-18T05:01:01.049Z,8.49
2023-04-18T05:03:27.828Z,8.47
2023-04-18T05:05:54.561Z,8.61
2023-04-18T05:08:21.016Z,8.60
2023-04-18T05:10:49.724Z,8.60
2023-04-18T05:13:16.331Z,8.57
2023-04-18T05:15:43.093Z,8.54
2023-04-18T05:18:09.633Z,8.48
2023-04-18T05:20:36.243Z,8.46
2023-04-18T05:23:02.728Z,8.42
2023-04-18T05:25:29.898Z,8.43
2023-04-18T05:27:56.473Z,8.43
2023-04-18T05:30:22.922Z,8.51
2023-04-18T05:32:49.433Z,8.53
2023-04-18T05:35:16.394Z,8.45
2023-04-18T05:37:42.885Z,8.46
2023-04-18T05:40:10.242Z,8.56
2023-04-18T05:42:36.718Z,8.52
2023-04-18T05:45:03.411Z,8.64
2023-04-18T05:47:30.453Z,8.66
2023-04-18T05:49:57.037Z,8.64
2023-04-18T05:52:23.778Z,8.67
2023-04-18T05:54:50.878Z,8.65
2023-04-18T05:57:17.462Z,8.57
2023-04-18T05:59:44.324Z,8.56
2023-04-18T06:02:13.694Z,8.51
2023-04-18T06:04:42.009Z,8.46
2023-04-18T06:07:09.852Z,8.42
2023-04-18T06:09:36.418Z,8.45
2023-04-18T06:12:03.079Z,8.41
2023-04-18T06:14:29.608Z,8.41
2023-04-18T06:16:56.250Z,8.52
2023-04-18T06:19:22.961Z,8.50
2023-04-18T06:21:49.879Z,8.58
2023-04-18T06:24:16.646Z,8.67
2023-04-18T06:26:43.569Z,8.66
2023-04-18T06:29:10.472Z,8.72
2023-04-18T06:31:37.077Z,8.84
2023-04-18T06:34:03.590Z,8.94
2023-04-18T06:36:30.401Z,8.93
2023-04-18T06:38:56.910Z,8.91
2023-04-18T06:41:23.377Z,8.83
2023-04-18T06:44:02.750Z,8.92
2023-04-18T06:46:31.438Z,8.87
2023-04-18T06:48:58.041Z,8.86
2023-04-18T06:51:24.623Z,8.94
2023-04-18T06:53:52.970Z,8.94
2023-04-18T06:56:20.622Z,8.96
2023-04-18T06:58:47.533Z,8.96
2023-04-18T07:01:14.096Z,9.02
2023-04-18T07:03:40.738Z,9.04
2023-04-18T07:06:08.902Z,9.05
2023-04-18T07:08:35.624Z,9.20
2023-04-18T07:11:02.348Z,9.14
2023-04-18T07:13:29.063Z,9.16
2023-04-18T07:15:55.685Z,9.14
2023-04-18T07:18:34.349Z,9.14
2023-04-18T07:21:03.729Z,9.16
2023-04-18T07:23:30.223Z,9.18
2023-04-18T07:25:58.588Z,9.28
2023-04-18T07:28:25.102Z,9.22
2023-04-18T07:30:51.722Z,9.02
2023-04-18T07:33:18.221Z,9.03
2023-04-18T07:35:46.003Z,9.11
2023-04-18T07:38:13.101Z,9.21
2023-04-18T07:40:39.639Z,9.33
2023-04-18T07:43:06.121Z,9.35
2023-04-18T07:45:35.659Z,9.41
2023-04-18T07:48:02.503Z,9.48
2023-04-18T07:50:29.043Z,9.60
2023-04-18T07:52:55.668Z,9.62
2023-04-18T07:55:22.130Z,9.66
2023-04-18T07:57:50.464Z,9.68
2023-04-18T08:00:18.241Z,9.72
2023-04-18T08:02:44.923Z,9.77
2023-04-18T08:05:12.103Z,9.86
2023-04-18T08:07:38.718Z,10.04
2023-04-18T08:10:05.648Z,10.02
2023-04-18T08:12:32.138Z,10.13
2023-04-18T08:14:58.590Z,10.18
2023-04-18T08:17:25.126Z,10.22
2023-04-18T08:19:51.695Z,10.15
2023-04-18T08:22:18.277Z,10.23
2023-04-18T08:25:01.066Z,10.42
2023-04-18T08:27:31.375Z,10.55
2023-04-18T08:29:58.211Z,10.64
2023-04-18T08:32:24.762Z,10.81
2023-04-18T08:34:51.382Z,10.93
2023-04-18T08:37:17.815Z,11.04
2023-04-18T08:39:45.030Z,11.14
2023-04-18T08:42:15.885Z,11.33
2023-04-18T08:44:42.938Z,11.32
2023-04-18T08:47:09.897Z,11.31
2023-04-18T08:49:36.417Z,11.49
2023-04-18T08:52:11.290Z,11.57
2023-04-18T08:54:42.020Z,11.72
2023-04-18T08:57:12.635Z,11.99
2023-04-18T08:59:40.185Z,12.33
2023-04-18T09:02:08.933Z,12.44
2023-04-18T09:04:36.667Z,13.20
2023-04-18T09:07:05.697Z,13.42
2023-04-18T09:09:46.810Z,13.84
2023-04-18T09:12:18.167Z,14.09
2023-04-18T09:14:46.993Z,15.18
2023-04-18T09:17:18.390Z,16.04
2023-04-18T09:19:48.997Z,16.75
2023-04-18T09:22:17.027Z,16.67
2023-04-18T09:24:53.613Z,17.21
2023-04-18T09:27:23.202Z,16.91
2023-04-18T09:29:52.204Z,17.75
2023-04-18T09:32:36.598Z,18.90
2023-04-18T09:35:05.374Z,18.64
2023-04-18T09:37:31.977Z,18.43
2023-04-18T09:39:58.578Z,18.06
2023-04-18T09:42:28.242Z,17.41
2023-04-18T09:45:01.394Z,17.18
2023-04-18T09:47:28.477Z,17.41
2023-04-18T09:49:55.630Z,17.02
2023-04-18T09:52:25.353Z,17.10
2023-04-18T09:54:59.724Z,17.48
2023-04-18T09:57:31.278Z,17.54
2023-04-18T10:00:17.365Z,17.90
2023-04-18T10:02:58.397Z,18.46
2023-04-18T10:05:27.504Z,18.78
2023-04-18T10:07:55.059Z,19.97
2023-04-18T10:10:21.898Z,19.97
2023-04-18T10:12:50.868Z,19.31
2023-04-18T10:15:20.014Z,19.24
2023-04-18T10:18:04.297Z,19.06
2023-04-18T10:20:34.949Z,18.63
2023-04-18T10:23:37.878Z,18.84
2023-04-18T10:26:07.931Z,18.54
2023-04-18T10:28:57.636Z,17.86
2023-04-18T10:31:28.576Z,17.57
2023-04-18T10:36:28.355Z,17.74
2023-04-18T10:39:29.990Z,17.76
2023-04-18T10:41:56.589Z,18.14
2023-04-18T10:44:23.504Z,18.62
2023-04-18T10:46:53.053Z,19.59
2023-04-18T10:49:23.358Z,20.16
2023-04-18T10:51:53.841Z,20.08
2023-04-18T10:54:32.407Z,21.16
2023-04-18T10:57:04.154Z,21.30
2023-04-18T10:59:33.135Z,20.58
2023-04-18T11:02:02.502Z,19.89
2023-04-18T11:04:29.258Z,20.67
2023-04-18T11:06:57.476Z,20.18
2023-04-18T11:09:24.650Z,19.65
2023-04-18T11:12:08.233Z,18.46
2023-04-18T11:14:42.131Z,17.60
2023-04-18T11:17:18.482Z,17.29
2023-04-18T11:19:45.186Z,16.66
2023-04-18T11:22:12.263Z,16.16
2023-04-18T11:24:39.090Z,16.15
2023-04-18T11:27:05.801Z,16.44
2023-04-18T11:29:32.463Z,16.32
2023-04-18T11:31:59.136Z,16.28
2023-04-18T11:34:31.746Z,16.40
2023-04-18T11:36:58.458Z,16.43
2023-04-18T11:39:25.064Z,16.66
2023-04-18T11:41:51.717Z,16.82
2023-04-18T11:44:23.453Z,16.77
2023-04-18T11:46:51.382Z,16.82
2023-04-18T11:49:32.106Z,16.96
2023-04-18T11:51:59.894Z,16.68
2023-04-18T11:54:36.591Z,16.18
2023-04-18T11:57:03.353Z,16.19
2023-04-18T11:59:29.868Z,15.94
2023-04-18T12:02:15.292Z,15.92
2023-04-18T12:05:00.171Z,15.61
2023-04-18T12:07:41.575Z,16.15
2023-04-18T12:10:23.465Z,16.08
2023-04-18T12:13:01.037Z,15.80
2023-04-18T12:15:29.382Z,15.78
2023-04-18T12:18:00.976Z,15.75
2023-04-18T12:20:47.343Z,16.03
2023-04-18T12:23:32.769Z,16.63
2023-04-18T12:26:01.461Z,17.18
2023-04-18T12:28:28.220Z,17.05
2023-04-18T12:30:55.791Z,17.16
2023-04-18T12:33:22.517Z,17.49
2023-04-18T12:35:49.672Z,17.94
2023-04-18T12:38:20.225Z,18.35
2023-04-18T12:40:46.777Z,18.77
2023-04-18T12:43:13.415Z,18.69
2023-04-18T12:45:39.914Z,18.66
2023-04-18T12:48:06.708Z,18.73
2023-04-18T12:50:33.382Z,18.78
2023-04-18T12:53:01.606Z,18.62
2023-04-18T12:55:29.146Z,18.32
2023-04-18T12:57:56.074Z,18.23
2023-04-18T13:00:24.210Z,18.47
2023-04-18T13:02:52.502Z,19.38
2023-04-18T13:05:21.369Z,20.08
2023-04-18T13:07:49.722Z,20.30
2023-04-18T13:10:20.919Z,20.36
2023-04-18T13:12:49.751Z,21.11
2023-04-18T13:15:16.928Z,20.41
2023-04-18T13:17:45.073Z,21.01
2023-04-18T13:20:15.097Z,20.24
2023-04-18T13:22:42.840Z,20.09
2023-04-18T13:25:10.697Z,19.81
2023-04-18T13:27:39.619Z,19.50
2023-04-18T13:30:10.364Z,18.81
2023-04-18T13:32:37.722Z,18.45
2023-04-18T13:35:04.594Z,18.18
2023-04-18T13:37:31.329Z,18.59
2023-04-18T13:39:58.025Z,19.27
2023-04-18T13:42:24.577Z,20.02
2023-04-18T13:44:51.106Z,19.77
2023-04-18T13:47:17.643Z,20.28
2023-04-18T13:49:44.178Z,20.61
2023-04-18T13:52:10.637Z,21.08
2023-04-18T13:54:37.687Z,20.94
2023-04-18T13:57:04.443Z,21.21
2023-04-18T13:59:32.324Z,21.51
2023-04-18T14:01:59.081Z,21.37
2023-04-18T14:04:26.073Z,20.65
2023-04-18T14:06:52.798Z,20.08
2023-04-18T14:09:19.404Z,19.83
2023-04-18T14:11:46.467Z,19.67
2023-04-18T14:14:13.065Z,20.38
2023-04-18T14:16:39.582Z,20.14
2023-04-18T14:19:06.057Z,20.15
2023-04-18T14:21:32.532Z,20.27
2023-04-18T14:23:59.058Z,20.49
2023-04-18T14:26:25.601Z,19.98
2023-04-18T14:28:52.173Z,19.58
2023-04-18T14:31:18.827Z,19.66
2023-04-18T14:33:45.372Z,20.19
2023-04-18T14:36:12.258Z,20.27
2023-04-18T14:38:38.719Z,20.27
2023-04-18T14:41:05.660Z,20.07
2023-04-18T14:43:32.371Z,19.71
2023-04-18T14:45:59.797Z,19.54
2023-04-18T14:48:27.865Z,19.63
2023-04-18T14:50:58.568Z,19.35
2023-04-18T14:53:25.301Z,19.16
2023-04-18T14:55:52.141Z,19.15
2023-04-18T14:58:18.627Z,19.19
2023-04-18T15:00:45.126Z,18.70
2023-04-18T15:03:11.799Z,18.50
2023-04-18T15:05:46.397Z,18.41
2023-04-18T15:08:14.548Z,18.44
2023-04-18T15:10:42.573Z,18.45
2023-04-18T15:13:09.832Z,17.70
2023-04-18T15:15:37.720Z,17.87
2023-04-18T15:18:04.756Z,17.88
2023-04-18T15:20:31.617Z,17.74
2023-04-18T15:22:58.153Z,17.60
2023-04-18T15:25:26.080Z,17.44
2023-04-18T15:27:52.966Z,17.47
2023-04-18T15:30:19.807Z,17.53
2023-04-18T15:32:47.664Z,17.62
2023-04-18T15:35:14.473Z,17.39
2023-04-18T15:37:41.476Z,17.20
2023-04-18T15:40:11.305Z,17.06
2023-04-18T15:42:39.516Z,16.99
2023-04-18T15:45:07.894Z,17.13
2023-04-18T15:47:34.786Z,16.75
2023-04-18T15:50:02.827Z,16.82
2023-04-18T15:52:29.952Z,16.69
2023-04-18T15:55:00.276Z,16.79
2023-04-18T15:57:26.911Z,16.77
2023-04-18T15:59:53.938Z,16.69
2023-04-18T16:02:20.752Z,16.44
2023-04-18T16:04:47.260Z,16.50
2023-04-18T16:07:13.861Z,16.51
2023-04-18T16:09:40.538Z,16.61
2023-04-18T16:12:08.131Z,16.69
2023-04-18T16:14:34.700Z,16.44
2023-04-18T16:17:01.243Z,16.28
2023-04-18T16:19:27.667Z,16.31
2023-04-18T16:21:54.199Z,16.37
2023-04-18T16:24:20.865Z,16.04
2023-04-18T16:26:47.361Z,16.01
2023-04-18T16:29:13.809Z,15.96
2023-04-18T16:31:41.518Z,15.90
2023-04-18T16:34:08.011Z,15.94
2023-04-18T16:36:34.782Z,15.96
2023-04-18T16:39:01.433Z,16.06
2023-04-18T16:41:28.079Z,16.11
2023-04-18T16:43:54.563Z,16.22
2023-04-18T16:46:21.112Z,16.16
2023-04-18T16:48:48.625Z,15.89
2023-04-18T16:51:16.169Z,15.95
2023-04-18T16:53:42.757Z,16.03
2023-04-18T16:56:09.308Z,16.01
2023-04-18T16:58:35.780Z,15.93
2023-04-18T17:01:02.399Z,15.89
2023-04-18T17:03:28.982Z,16.05
2023-04-18T17:05:55.905Z,16.07
2023-04-18T17:08:22.403Z,15.89
2023-04-18T17:10:51.909Z,15.84
2023-04-18T17:13:18.556Z,15.72
2023-04-18T17:15:45.091Z,15.67
2023-04-18T17:18:11.778Z,15.60
2023-04-18T17:20:38.404Z,15.46
2023-04-18T17:23:04.930Z,15.37
2023-04-18T17:25:31.877Z,15.37
2023-04-18T17:27:58.712Z,15.19
2023-04-18T17:30:25.242Z,15.26
2023-04-18T17:32:51.759Z,15.09
2023-04-18T17:35:18.442Z,14.99
2023-04-18T17:37:47.400Z,14.98
2023-04-18T17:40:13.978Z,14.96
2023-04-18T17:42:40.466Z,14.90
2023-04-18T17:45:08.885Z,14.86
2023-04-18T17:47:36.690Z,14.76
2023-04-18T17:50:04.141Z,14.70
2023-04-18T17:52:30.691Z,14.67
2023-04-18T17:54:58.403Z,14.61
2023-04-18T17:57:26.607Z,14.57
2023-04-18T17:59:53.670Z,14.55
2023-04-18T18:02:20.456Z,14.49
2023-04-18T18:04:47.250Z,14.51
2023-04-18T18:07:13.899Z,14.49
2023-04-18T18:09:42.006Z,14.38
2023-04-18T18:12:12.281Z,14.41
2023-04-18T18:14:40.470Z,14.34
2023-04-18T18:17:07.264Z,14.37
2023-04-18T18:19:36.715Z,14.20
2023-04-18T18:22:03.211Z,14.11
2023-04-18T18:24:29.986Z,14.09
2023-04-18T18:26:58.067Z,13.99
2023-04-18T18:29:24.674Z,14.00
2023-04-18T18:31:51.246Z,14.04
2023-04-18T18:34:17.818Z,14.06
2023-04-18T18:36:44.265Z,14.05
2023-04-18T18:39:11.159Z,14.03
2023-04-18T18:41:37.788Z,14.05
2023-04-18T18:44:04.374Z,14.09
2023-04-18T18:46:31.060Z,14.02
2023-04-18T18:48:57.703Z,13.97
2023-04-18T18:51:24.279Z,13.89
2023-04-18T18:53:50.787Z,13.97
2023-04-18T18:56:17.241Z,14.07
2023-04-18T18:58:43.809Z,14.07
2023-04-18T19:01:11.520Z,14.06
2023-04-18T19:03:38.258Z,14.08
2023-04-18T19:06:07.026Z,14.21
2023-04-18T19:08:34.096Z,14.14
2023-04-18T19:11:00.713Z,14.23
2023-04-18T19:13:27.287Z,14.38
2023-04-18T19:15:54.228Z,14.47
2023-04-18T19:18:21.314Z,14.53
2023-04-18T19:20:49.539Z,14.52
2023-04-18T19:23:17.047Z,14.27
2023-04-18T19:25:44.911Z,14.22
2023-04-18T19:28:12.867Z,14.16
2023-04-18T19:30:39.381Z,13.96
2023-04-18T19:33:06.005Z,14.01
2023-04-18T19:35:32.556Z,13.98
2023-04-18T19:38:01.716Z,14.01
2023-04-18T19:40:29.298Z,14.00
2023-04-18T19:42:55.779Z,14.02
2023-04-18T19:45:22.278Z,14.00
2023-04-18T19:47:48.918Z,14.03
2023-04-18T19:50:15.438Z,13.89
2023-04-18T19:52:41.923Z,13.93
2023-04-18T19:55:08.858Z,13.82
2023-04-18T19:57:39.605Z,13.80
2023-04-18T20:00:11.380Z,13.69
2023-04-18T20:02:39.099Z,13.66
2023-04-18T20:05:07.350Z,13.59
2023-04-18T20:07:34.886Z,13.45
2023-04-18T20:10:01.802Z,13.39
2023-04-18T20:12:28.403Z,13.37
2023-04-18T20:14:55.515Z,13.32
2023-04-18T20:17:22.118Z,13.33
2023-04-18T20:19:49.598Z,13.31
2023-04-18T20:22:16.645Z,13.36
2023-04-18T20:24:44.996Z,13.30
2023-04-18T20:27:12.080Z,13.11
2023-04-18T20:29:38.676Z,13.05
2023-04-18T20:32:05.811Z,13.05
2023-04-18T20:34:32.587Z,13.10
2023-04-18T20:37:00.015Z,12.97
2023-04-18T20:39:27.033Z,12.97
2023-04-18T20:41:54.284Z,12.90
2023-04-18T20:44:21.758Z,12.84
2023-04-18T20:46:48.418Z,12.72
2023-04-18T20:49:15.071Z,12.71
2023-04-18T20:51:41.795Z,12.70
2023-04-18T20:54:08.257Z,12.63
2023-04-18T20:56:36.903Z,12.61
2023-04-18T20:59:04.927Z,12.58
2023-04-18T21:01:31.611Z,12.43
2023-04-18T21:03:58.414Z,12.31
2023-04-18T21:06:25.027Z,12.27
2023-04-18T21:08:51.568Z,12.25
2023-04-18T21:11:18.021Z,12.22
2023-04-18T21:13:44.539Z,12.18
2023-04-18T21:16:11.155Z,12.26
2023-04-18T21:18:37.698Z,12.18
2023-04-18T21:21:04.475Z,12.10
2023-04-18T21:23:31.113Z,12.17
2023-04-18T21:25:57.602Z,12.21
2023-04-18T21:28:24.141Z,12.12
2023-04-18T21:30:50.737Z,12.07
2023-04-18T21:33:17.259Z,12.10
2023-04-18T21:35:43.782Z,12.02
2023-04-18T21:38:10.326Z,12.02
2023-04-18T21:40:37.483Z,12.02
2023-04-18T21:43:03.958Z,12.02
2023-04-18T21:45:30.550Z,12.11
2023-04-18T21:47:57.099Z,12.02
2023-04-18T21:50:23.705Z,11.95
2023-04-18T21:52:50.137Z,11.86
2023-04-18T21:55:17.976Z,11.83
2023-04-18T21:57:44.460Z,11.81
2023-04-18T22:00:12.692Z,11.68
2023-04-18T22:02:39.224Z,11.68
2023-04-18T22:05:07.579Z,11.72
2023-04-18T22:07:43.330Z,11.61
2023-04-18T22:10:17.760Z,11.55
2023-04-18T22:12:44.462Z,11.27
2023-04-18T22:15:12.265Z,11.33
2023-04-18T22:17:41.684Z,11.19
2023-04-18T22:20:08.778Z,11.18
2023-04-18T22:22:35.444Z,11.27
2023-04-18T22:25:01.923Z,11.23
2023-04-18T22:27:28.442Z,11.23
2023-04-18T22:29:54.965Z,11.27
2023-04-18T22:32:21.487Z,11.29
2023-04-18T22:34:48.670Z,11.20
2023-04-18T22:37:15.149Z,11.04
2023-04-18T22:39:41.682Z,11.05
2023-04-18T22:42:08.168Z,10.95
2023-04-18T22:44:34.626Z,10.82
2023-04-18T22:47:01.380Z,10.76
2023-04-18T22:49:28.406Z,10.84
2023-04-18T22:51:54.834Z,10.81
2023-04-18T22:54:21.366Z,10.87
2023-04-18T22:56:51.449Z,10.91
2023-04-18T22:59:18.063Z,10.75
2023-04-18T23:01:44.757Z,10.62
2023-04-18T23:04:11.499Z,10.52
2023-04-18T23:06:38.774Z,10.58
2023-04-18T23:09:07.063Z,10.42
2023-04-18T23:11:33.539Z,10.35
2023-04-18T23:14:00.017Z,10.35
2023-04-18T23:16:26.695Z,10.25
2023-04-18T23:18:53.328Z,10.25
2023-04-18T23:21:19.784Z,10.24
2023-04-18T23:23:46.313Z,10.16
2023-04-18T23:26:14.437Z,10.03
2023-04-18T23:28:42.339Z,9.94
2023-04-18T23:31:09.601Z,9.98
2023-04-18T23:33:36.504Z,9.87
2023-04-18T23:36:03.295Z,9.83
2023-04-18T23:38:30.763Z,9.98
2023-04-18T23:40:57.256Z,9.91
2023-04-18T23:43:23.742Z,9.91
2023-04-18T23:45:50.632Z,9.80
2023-04-18T23:48:17.129Z,9.76
2023-04-18T23:50:52.495Z,9.72
2023-04-18T23:53:20.411Z,9.81
2023-04-18T23:55:49.477Z,9.78
2023-04-18T23:58:17.126Z,9.86
